Buoy 52514

sailwx.info

Track history (hours):
 
Tides and Currents Weather Stations Pressure Air Temp Water Temp Dewpoint Dewpoint Depression Visibility Wind Speed Wind Dir Waves Ship Positions

Drifting buoy 52514

Last reported at 2016-Aug-30 02:00 UTC. Time now 2016-Aug-30 05:00 UTC.
Position N 25°53' E 134°39'.

Date/timePositionNaut miles runAvg speedWind from/ knotsBaromVisibWave heightAir tempDewpointWater temp
2016-Aug-30 02:00N 25°53' E 134°39'1 0.5
2016-Aug-30 01:00N 25°53' E 134°39'1 0.6
2016-Aug-30 00:00N 25°53' E 134°38'2 0.6
2016-Aug-29 21:00N 25°52' E 134°36'1 0.7
2016-Aug-29 20:00N 25°53' E 134°36'2 1.7
2016-Aug-29 19:00N 25°51' E 134°35'1 0.2
2016-Aug-29 12:00N 25°51' E 134°34'1 0.8
2016-Aug-29 11:00N 25°50' E 134°34'1 0.9
2016-Aug-29 10:00N 25°50' E 134°34'0 0.4
2016-Aug-29 09:00N 25°50' E 134°34'0 0.3
2016-Aug-29 08:00N 25°50' E 134°34'0 0.0
2016-Aug-29 07:00N 25°50' E 134°34'2 0.8
2016-Aug-29 05:00N 25°52' E 134°33'0 0.0
2016-Aug-29 04:00N 25°52' E 134°33'3 0.7
2016-Aug-29 00:00N 25°53' E 134°30'2 0.9
2016-Aug-28 22:00N 25°53' E 134°28'1 1.1
2016-Aug-28 21:00N 25°53' E 134°27'1 0.6
2016-Aug-28 19:00N 25°53' E 134°26'0 0.0
2016-Aug-28 17:00N 25°53' E 134°26'3 0.8
2016-Aug-28 13:00N 25°51' E 134°23'0 0.2
2016-Aug-28 12:00N 25°51' E 134°23'1 0.7
2016-Aug-28 11:00N 25°51' E 134°24'0 0.4
2016-Aug-28 10:00N 25°52' E 134°23'0 0.2
2016-Aug-28 08:00N 25°52' E 134°23'1 1.5
2016-Aug-28 07:00N 25°53' E 134°23'0 0.0
2016-Aug-28 05:00N 25°53' E 134°23'4 0.9
2016-Aug-28 01:00N 25°57' E 134°21'1 1.2
2016-Aug-28 00:00N 25°58' E 134°21'1 0.7
2016-Aug-27 23:00N 25°59' E 134°21'1 0.8
2016-Aug-27 22:00N 25°59' E 134°21'1 0.6
2016-Aug-27 21:00N 25°60' E 134°22'3 2.6
2016-Aug-27 20:00N 26°02' E 134°23'0 0.0
2016-Aug-27 19:00N 26°02' E 134°23'0 0.0
2016-Aug-27 18:00N 26°02' E 134°23'0 0.0
2016-Aug-27 17:00N 26°02' E 134°23'7 1.7
2016-Aug-27 13:00N 26°01' E 134°31'1 1.4
2016-Aug-27 12:00N 26°01' E 134°32'0 0.0
2016-Aug-27 11:00N 26°01' E 134°32'4 2.2
2016-Aug-27 09:00N 25°58' E 134°35'0 0.2
2016-Aug-27 08:00N 25°58' E 134°35'4 3.7
2016-Aug-27 07:00N 25°55' E 134°38'0 0.0
2016-Aug-27 06:00N 25°55' E 134°38'5 4.9
2016-Aug-27 05:00N 25°51' E 134°41'0 0.0
2016-Aug-27 01:00N 25°51' E 134°41'3 0.9
2016-Aug-26 22:00N 25°48' E 134°42'1 1.5
2016-Aug-26 21:00N 25°47' E 134°43'2 1.6
2016-Aug-26 20:00N 25°45' E 134°43'0 0.0
2016-Aug-26 18:00N 25°45' E 134°43'5 0.8
2016-Aug-26 12:00N 25°41' E 134°45'1 0.7
2016-Aug-26 11:00N 25°41' E 134°46'2 2.0
2016-Aug-26 10:00N 25°39' E 134°45'0 0.0
2016-Aug-26 09:00N 25°39' E 134°45'2 1.8
2016-Aug-26 08:00N 25°37' E 134°45'0 0.0
2016-Aug-26 07:00N 25°37' E 134°45'0 0.0
2016-Aug-26 05:00N 25°37' E 134°45'5 1.0
2016-Aug-26 00:00N 25°32' E 134°46'3 1.4
2016-Aug-25 22:00N 25°30' E 134°47'0 0.5
2016-Aug-25 21:00N 25°29' E 134°47'2 1.8
2016-Aug-25 20:00N 25°28' E 134°49'0 0.2
2016-Aug-25 18:00N 25°28' E 134°49'2 0.8
2016-Aug-25 16:00N 25°27' E 134°50'2 0.7
2016-Aug-25 13:00N 25°26' E 134°53'0 0.0
2016-Aug-25 12:00N 25°26' E 134°53'1 0.3
2016-Aug-25 10:00N 25°26' E 134°52'2 1.1
2016-Aug-25 08:00N 25°23' E 134°52'0 0.0
2016-Aug-25 06:00N 25°23' E 134°52'1 1.3
2016-Aug-25 05:00N 25°22' E 134°52'0 0.2
2016-Aug-25 04:00N 25°22' E 134°52'2 1.0
2016-Aug-25 02:00N 25°20' E 134°51'2 1.2
2016-Aug-25 00:00N 25°18' E 134°51'4 2.1
2016-Aug-24 22:00N 25°14' E 134°52'2 0.8
2016-Aug-24 20:00N 25°12' E 134°53'2 1.0
2016-Aug-24 18:00N 25°11' E 134°55'2 1.6
2016-Aug-24 17:00N 25°10' E 134°56'0 0.0
2016-Aug-24 16:00N 25°10' E 134°56'3 0.7
2016-Aug-24 12:00N 25°09' E 134°59'1 1.0
2016-Aug-24 11:00N 25°08' E 134°60'1 0.4
2016-Aug-24 09:00N 25°08' E 134°59'0 0.2
2016-Aug-24 08:00N 25°07' E 134°59'3 2.5
2016-Aug-24 07:00N 25°05' E 134°57'2 0.9
2016-Aug-24 05:00N 25°03' E 134°58'0 0.0
2016-Aug-24 04:00N 25°03' E 134°58'9 1.2
2016-Aug-23 21:00N 24°55' E 134°57'2 2.3
2016-Aug-23 20:00N 24°53' E 134°57'0 0.0
2016-Aug-23 19:00N 24°53' E 134°57'1 1.4
2016-Aug-23 18:00N 24°51' E 134°58'0 0.0
2016-Aug-23 17:00N 24°51' E 134°58'3 0.7
2016-Aug-23 13:00N 24°49' E 134°57'1 1.1
2016-Aug-23 12:00N 24°48' E 134°56'0 0.0
2016-Aug-23 11:00N 24°48' E 134°56'3 1.7
2016-Aug-23 09:00N 24°46' E 134°54'0 0.0
2016-Aug-23 08:00N 24°46' E 134°54'0 0.0
2016-Aug-23 07:00N 24°46' E 134°54'1 1.2
2016-Aug-23 06:00N 24°45' E 134°52'3 1.3
2016-Aug-23 04:00N 24°44' E 134°50'1 0.3
2016-Aug-23 01:00N 24°44' E 134°49'2 0.8
2016-Aug-22 22:00N 24°42' E 134°47'0 0.2
2016-Aug-22 21:00N 24°42' E 134°47'1 0.6
2016-Aug-22 20:00N 24°41' E 134°48'1 0.7
2016-Aug-22 19:00N 24°41' E 134°47'0 0.4
2016-Aug-22 18:00N 24°41' E 134°47'0 0.0
2016-Aug-22 17:00N 24°41' E 134°47'3 0.8
2016-Aug-22 13:00N 24°40' E 134°44'0 0.2
2016-Aug-22 11:00N 24°40' E 134°43'2 0.8
2016-Aug-22 09:00N 24°40' E 134°42'1 0.5
2016-Aug-22 08:00N 24°39' E 134°41'0 0.2
2016-Aug-22 07:00N 24°39' E 134°41'0 0.3
2016-Aug-22 06:00N 24°39' E 134°41'1 0.7
2016-Aug-22 04:00N 24°40' E 134°40'4 1.9
2016-Aug-22 02:00N 24°39' E 134°36'0 0.0
2016-Aug-22 01:00N 24°39' E 134°36'2 1.6
2016-Aug-22 00:00N 24°38' E 134°34'2 2.0
2016-Aug-21 23:00N 24°37' E 134°33'1 0.5
2016-Aug-21 22:00N 24°37' E 134°32'1 0.5
2016-Aug-21 21:00N 24°36' E 134°33'1 1.2
2016-Aug-21 20:00N 24°35' E 134°32'1 0.9
2016-Aug-21 19:00N 24°35' E 134°31'0 0.0
2016-Aug-21 18:00N 24°35' E 134°31'0 0.1
2016-Aug-21 17:00N 24°35' E 134°31'3 0.6
2016-Aug-21 13:00N 24°33' E 134°28'0 0.2
2016-Aug-21 12:00N 24°33' E 134°29'2 1.9
2016-Aug-21 11:00N 24°34' E 134°27'0 0.0
2016-Aug-21 09:00N 24°34' E 134°27'3 0.9
2016-Aug-21 06:00N 24°33' E 134°24'2 2.0
2016-Aug-21 05:00N 24°33' E 134°21'0 0.0
2016-Aug-21 04:00N 24°33' E 134°21'4 1.4
2016-Aug-21 01:00N 24°31' E 134°17'2 1.9
2016-Aug-21 00:00N 24°29' E 134°16'2 1.7
2016-Aug-20 23:00N 24°29' E 134°15'0 0.1
2016-Aug-20 22:00N 24°29' E 134°15'1 1.0
2016-Aug-20 21:00N 24°28' E 134°15'0 0.4
2016-Aug-20 20:00N 24°28' E 134°15'1 0.2
2016-Aug-20 17:00N 24°27' E 134°15'4 0.9
2016-Aug-20 13:00N 24°26' E 134°11'0 0.2
2016-Aug-20 12:00N 24°26' E 134°11'0 0.1
2016-Aug-20 11:00N 24°26' E 134°11'0 0.1
2016-Aug-20 09:00N 24°26' E 134°11'0 0.2
2016-Aug-20 08:00N 24°26' E 134°11'1 0.7
2016-Aug-20 07:00N 24°25' E 134°11'0 0.0
2016-Aug-20 06:00N 24°25' E 134°11'0 0.1
2016-Aug-20 05:00N 24°26' E 134°11'2 0.6
2016-Aug-20 02:00N 24°25' E 134°09'  
Track history (hours):
 
Tides and Currents Weather Stations Pressure Air Temp Water Temp Dewpoint Dewpoint Depression Visibility Wind Speed Wind Dir Waves Ship Positions

Drifting buoy 52514

Last reported at 2016-Aug-30 02:00 UTC. Time now 2016-Aug-30 05:00 UTC.
Position N 25°53' E 134°39'.

Date/timePositionNaut miles runAvg speedWind from/ knotsBaromVisibWave heightAir tempDewpointWater temp
2016-Aug-30 02:00N 25°53' E 134°39'1 0.5
2016-Aug-30 01:00N 25°53' E 134°39'1 0.6
2016-Aug-30 00:00N 25°53' E 134°38'2 0.6
2016-Aug-29 21:00N 25°52' E 134°36'1 0.7
2016-Aug-29 20:00N 25°53' E 134°36'2 1.7
2016-Aug-29 19:00N 25°51' E 134°35'1 0.2
2016-Aug-29 12:00N 25°51' E 134°34'1 0.8
2016-Aug-29 11:00N 25°50' E 134°34'1 0.9
2016-Aug-29 10:00N 25°50' E 134°34'0 0.4
2016-Aug-29 09:00N 25°50' E 134°34'0 0.3
2016-Aug-29 08:00N 25°50' E 134°34'0 0.0
2016-Aug-29 07:00N 25°50' E 134°34'2 0.8
2016-Aug-29 05:00N 25°52' E 134°33'0 0.0
2016-Aug-29 04:00N 25°52' E 134°33'3 0.7
2016-Aug-29 00:00N 25°53' E 134°30'2 0.9
2016-Aug-28 22:00N 25°53' E 134°28'1 1.1
2016-Aug-28 21:00N 25°53' E 134°27'1 0.6
2016-Aug-28 19:00N 25°53' E 134°26'0 0.0
2016-Aug-28 17:00N 25°53' E 134°26'3 0.8
2016-Aug-28 13:00N 25°51' E 134°23'0 0.2
2016-Aug-28 12:00N 25°51' E 134°23'1 0.7
2016-Aug-28 11:00N 25°51' E 134°24'0 0.4
2016-Aug-28 10:00N 25°52' E 134°23'0 0.2
2016-Aug-28 08:00N 25°52' E 134°23'1 1.5
2016-Aug-28 07:00N 25°53' E 134°23'0 0.0
2016-Aug-28 05:00N 25°53' E 134°23'4 0.9
2016-Aug-28 01:00N 25°57' E 134°21'1 1.2
2016-Aug-28 00:00N 25°58' E 134°21'1 0.7
2016-Aug-27 23:00N 25°59' E 134°21'1 0.8
2016-Aug-27 22:00N 25°59' E 134°21'1 0.6
2016-Aug-27 21:00N 25°60' E 134°22'3 2.6
2016-Aug-27 20:00N 26°02' E 134°23'0 0.0
2016-Aug-27 19:00N 26°02' E 134°23'0 0.0
2016-Aug-27 18:00N 26°02' E 134°23'0 0.0
2016-Aug-27 17:00N 26°02' E 134°23'7 1.7
2016-Aug-27 13:00N 26°01' E 134°31'1 1.4
2016-Aug-27 12:00N 26°01' E 134°32'0 0.0
2016-Aug-27 11:00N 26°01' E 134°32'4 2.2
2016-Aug-27 09:00N 25°58' E 134°35'0 0.2
2016-Aug-27 08:00N 25°58' E 134°35'4 3.7
2016-Aug-27 07:00N 25°55' E 134°38'0 0.0
2016-Aug-27 06:00N 25°55' E 134°38'5 4.9
2016-Aug-27 05:00N 25°51' E 134°41'0 0.0
2016-Aug-27 01:00N 25°51' E 134°41'3 0.9
2016-Aug-26 22:00N 25°48' E 134°42'1 1.5
2016-Aug-26 21:00N 25°47' E 134°43'2 1.6
2016-Aug-26 20:00N 25°45' E 134°43'0 0.0
2016-Aug-26 18:00N 25°45' E 134°43'5 0.8
2016-Aug-26 12:00N 25°41' E 134°45'1 0.7
2016-Aug-26 11:00N 25°41' E 134°46'2 2.0
2016-Aug-26 10:00N 25°39' E 134°45'0 0.0
2016-Aug-26 09:00N 25°39' E 134°45'2 1.8
2016-Aug-26 08:00N 25°37' E 134°45'0 0.0
2016-Aug-26 07:00N 25°37' E 134°45'0 0.0
2016-Aug-26 05:00N 25°37' E 134°45'5 1.0
2016-Aug-26 00:00N 25°32' E 134°46'3 1.4
2016-Aug-25 22:00N 25°30' E 134°47'0 0.5
2016-Aug-25 21:00N 25°29' E 134°47'2 1.8
2016-Aug-25 20:00N 25°28' E 134°49'0 0.2
2016-Aug-25 18:00N 25°28' E 134°49'2 0.8
2016-Aug-25 16:00N 25°27' E 134°50'2 0.7
2016-Aug-25 13:00N 25°26' E 134°53'0 0.0
2016-Aug-25 12:00N 25°26' E 134°53'1 0.3
2016-Aug-25 10:00N 25°26' E 134°52'2 1.1
2016-Aug-25 08:00N 25°23' E 134°52'0 0.0
2016-Aug-25 06:00N 25°23' E 134°52'1 1.3
2016-Aug-25 05:00N 25°22' E 134°52'0 0.2
2016-Aug-25 04:00N 25°22' E 134°52'2 1.0
2016-Aug-25 02:00N 25°20' E 134°51'2 1.2
2016-Aug-25 00:00N 25°18' E 134°51'4 2.1
2016-Aug-24 22:00N 25°14' E 134°52'2 0.8
2016-Aug-24 20:00N 25°12' E 134°53'2 1.0
2016-Aug-24 18:00N 25°11' E 134°55'2 1.6
2016-Aug-24 17:00N 25°10' E 134°56'0 0.0
2016-Aug-24 16:00N 25°10' E 134°56'3 0.7
2016-Aug-24 12:00N 25°09' E 134°59'1 1.0
2016-Aug-24 11:00N 25°08' E 134°60'1 0.4
2016-Aug-24 09:00N 25°08' E 134°59'0 0.2
2016-Aug-24 08:00N 25°07' E 134°59'3 2.5
2016-Aug-24 07:00N 25°05' E 134°57'2 0.9
2016-Aug-24 05:00N 25°03' E 134°58'0 0.0
2016-Aug-24 04:00N 25°03' E 134°58'9 1.2
2016-Aug-23 21:00N 24°55' E 134°57'2 2.3
2016-Aug-23 20:00N 24°53' E 134°57'0 0.0
2016-Aug-23 19:00N 24°53' E 134°57'1 1.4
2016-Aug-23 18:00N 24°51' E 134°58'0 0.0
2016-Aug-23 17:00N 24°51' E 134°58'3 0.7
2016-Aug-23 13:00N 24°49' E 134°57'1 1.1
2016-Aug-23 12:00N 24°48' E 134°56'0 0.0
2016-Aug-23 11:00N 24°48' E 134°56'3 1.7
2016-Aug-23 09:00N 24°46' E 134°54'0 0.0
2016-Aug-23 08:00N 24°46' E 134°54'0 0.0
2016-Aug-23 07:00N 24°46' E 134°54'1 1.2
2016-Aug-23 06:00N 24°45' E 134°52'3 1.3
2016-Aug-23 04:00N 24°44' E 134°50'1 0.3
2016-Aug-23 01:00N 24°44' E 134°49'2 0.8
2016-Aug-22 22:00N 24°42' E 134°47'0 0.2
2016-Aug-22 21:00N 24°42' E 134°47'1 0.6
2016-Aug-22 20:00N 24°41' E 134°48'1 0.7
2016-Aug-22 19:00N 24°41' E 134°47'0 0.4
2016-Aug-22 18:00N 24°41' E 134°47'0 0.0
2016-Aug-22 17:00N 24°41' E 134°47'3 0.8
2016-Aug-22 13:00N 24°40' E 134°44'0 0.2
2016-Aug-22 11:00N 24°40' E 134°43'2 0.8
2016-Aug-22 09:00N 24°40' E 134°42'1 0.5
2016-Aug-22 08:00N 24°39' E 134°41'0 0.2
2016-Aug-22 07:00N 24°39' E 134°41'0 0.3
2016-Aug-22 06:00N 24°39' E 134°41'1 0.7
2016-Aug-22 04:00N 24°40' E 134°40'4 1.9
2016-Aug-22 02:00N 24°39' E 134°36'0 0.0
2016-Aug-22 01:00N 24°39' E 134°36'2 1.6
2016-Aug-22 00:00N 24°38' E 134°34'2 2.0
2016-Aug-21 23:00N 24°37' E 134°33'1 0.5
2016-Aug-21 22:00N 24°37' E 134°32'1 0.5
2016-Aug-21 21:00N 24°36' E 134°33'1 1.2
2016-Aug-21 20:00N 24°35' E 134°32'1 0.9
2016-Aug-21 19:00N 24°35' E 134°31'0 0.0
2016-Aug-21 18:00N 24°35' E 134°31'0 0.1
2016-Aug-21 17:00N 24°35' E 134°31'3 0.6
2016-Aug-21 13:00N 24°33' E 134°28'0 0.2
2016-Aug-21 12:00N 24°33' E 134°29'2 1.9
2016-Aug-21 11:00N 24°34' E 134°27'0 0.0
2016-Aug-21 09:00N 24°34' E 134°27'3 0.9
2016-Aug-21 06:00N 24°33' E 134°24'2 2.0
2016-Aug-21 05:00N 24°33' E 134°21'0 0.0
2016-Aug-21 04:00N 24°33' E 134°21'4 1.4
2016-Aug-21 01:00N 24°31' E 134°17'2 1.9
2016-Aug-21 00:00N 24°29' E 134°16'2 1.7
2016-Aug-20 23:00N 24°29' E 134°15'0 0.1
2016-Aug-20 22:00N 24°29' E 134°15'1 1.0
2016-Aug-20 21:00N 24°28' E 134°15'0 0.4
2016-Aug-20 20:00N 24°28' E 134°15'1 0.2
2016-Aug-20 17:00N 24°27' E 134°15'4 0.9
2016-Aug-20 13:00N 24°26' E 134°11'0 0.2
2016-Aug-20 12:00N 24°26' E 134°11'0 0.1
2016-Aug-20 11:00N 24°26' E 134°11'0 0.1
2016-Aug-20 09:00N 24°26' E 134°11'0 0.2
2016-Aug-20 08:00N 24°26' E 134°11'1 0.7
2016-Aug-20 07:00N 24°25' E 134°11'0 0.0
2016-Aug-20 06:00N 24°25' E 134°11'0 0.1
2016-Aug-20 05:00N 24°26' E 134°11'2 0.6
2016-Aug-20 02:00N 24°25' E 134°09'  

Dump ship's entire track history